sensor_id;sensor_type;location;lat;lon;timestamp;P1;durP1;ratioP1;P2;durP2;ratioP2
18947;SDS011;9607;51.600;7.558;2022-08-19T00:02:19;3.90;;;3.60;;
18947;SDS011;9607;51.600;7.558;2022-08-19T00:04:46;5.13;;;4.72;;
18947;SDS011;9607;51.600;7.558;2022-08-19T00:07:17;4.80;;;4.40;;
18947;SDS011;9607;51.600;7.558;2022-08-19T00:09:44;5.70;;;5.30;;
18947;SDS011;9607;51.600;7.558;2022-08-19T00:12:13;4.68;;;4.28;;
18947;SDS011;9607;51.600;7.558;2022-08-19T00:14:46;5.20;;;4.80;;
18947;SDS011;9607;51.600;7.558;2022-08-19T00:17:13;4.70;;;4.38;;
18947;SDS011;9607;51.600;7.558;2022-08-19T00:19:46;5.65;;;5.20;;
18947;SDS011;9607;51.600;7.558;2022-08-19T00:22:15;5.60;;;5.20;;
18947;SDS011;9607;51.600;7.558;2022-08-19T00:25:01;4.60;;;4.30;;
18947;SDS011;9607;51.600;7.558;2022-08-19T00:27:29;5.90;;;5.40;;
18947;SDS011;9607;51.600;7.558;2022-08-19T00:29:56;7.55;;;6.88;;
18947;SDS011;9607;51.600;7.558;2022-08-19T00:32:23;7.05;;;6.45;;
18947;SDS011;9607;51.600;7.558;2022-08-19T00:34:50;7.35;;;6.75;;
18947;SDS011;9607;51.600;7.558;2022-08-19T00:37:18;8.07;;;7.18;;
18947;SDS011;9607;51.600;7.558;2022-08-19T00:39:47;7.10;;;6.53;;
18947;SDS011;9607;51.600;7.558;2022-08-19T00:42:16;7.45;;;5.72;;
18947;SDS011;9607;51.600;7.558;2022-08-19T00:44:46;7.20;;;6.50;;
18947;SDS011;9607;51.600;7.558;2022-08-19T00:47:16;7.93;;;7.28;;
18947;SDS011;9607;51.600;7.558;2022-08-19T00:49:45;8.05;;;7.35;;
18947;SDS011;9607;51.600;7.558;2022-08-19T00:52:18;8.10;;;7.32;;
18947;SDS011;9607;51.600;7.558;2022-08-19T00:54:49;9.63;;;8.68;;
18947;SDS011;9607;51.600;7.558;2022-08-19T00:57:44;8.05;;;7.35;;
18947;SDS011;9607;51.600;7.558;2022-08-19T01:00:32;7.07;;;6.47;;
18947;SDS011;9607;51.600;7.558;2022-08-19T01:03:02;7.20;;;6.60;;
18947;SDS011;9607;51.600;7.558;2022-08-19T01:05:30;8.45;;;7.75;;
18947;SDS011;9607;51.600;7.558;2022-08-19T01:07:58;6.35;;;5.82;;
18947;SDS011;9607;51.600;7.558;2022-08-19T01:10:30;7.55;;;6.85;;
18947;SDS011;9607;51.600;7.558;2022-08-19T01:13:00;7.22;;;6.55;;
18947;SDS011;9607;51.600;7.558;2022-08-19T01:15:34;6.90;;;6.30;;
18947;SDS011;9607;51.600;7.558;2022-08-19T01:18:07;8.32;;;7.57;;
18947;SDS011;9607;51.600;7.558;2022-08-19T01:23:40;8.25;;;7.55;;
18947;SDS011;9607;51.600;7.558;2022-08-19T01:34:45;6.35;;;5.85;;
18947;SDS011;9607;51.600;7.558;2022-08-19T01:37:13;6.07;;;5.57;;
18947;SDS011;9607;51.600;7.558;2022-08-19T01:39:42;7.88;;;7.18;;
18947;SDS011;9607;51.600;7.558;2022-08-19T01:42:16;8.50;;;7.70;;
18947;SDS011;9607;51.600;7.558;2022-08-19T01:45:01;6.30;;;5.80;;
18947;SDS011;9607;51.600;7.558;2022-08-19T01:47:35;11.40;;;10.27;;
18947;SDS011;9607;51.600;7.558;2022-08-19T01:50:14;11.55;;;10.45;;
18947;SDS011;9607;51.600;7.558;2022-08-19T01:52:43;11.60;;;10.50;;
18947;SDS011;9607;51.600;7.558;2022-08-19T01:55:18;13.90;;;12.50;;
18947;SDS011;9607;51.600;7.558;2022-08-19T02:00:24;10.50;;;9.57;;
18947;SDS011;9607;51.600;7.558;2022-08-19T02:02:56;9.70;;;8.88;;
18947;SDS011;9607;51.600;7.558;2022-08-19T02:05:23;8.38;;;7.68;;
18947;SDS011;9607;51.600;7.558;2022-08-19T02:07:53;8.57;;;7.78;;
18947;SDS011;9607;51.600;7.558;2022-08-19T02:10:22;9.77;;;8.98;;
18947;SDS011;9607;51.600;7.558;2022-08-19T02:13:02;9.98;;;9.07;;
18947;SDS011;9607;51.600;7.558;2022-08-19T02:15:30;8.30;;;7.60;;
18947;SDS011;9607;51.600;7.558;2022-08-19T02:18:01;7.55;;;6.90;;
18947;SDS011;9607;51.600;7.558;2022-08-19T02:20:29;7.18;;;6.57;;
18947;SDS011;9607;51.600;7.558;2022-08-19T02:23:01;6.28;;;5.78;;
18947;SDS011;9607;51.600;7.558;2022-08-19T02:25:31;7.55;;;6.85;;
18947;SDS011;9607;51.600;7.558;2022-08-19T02:27:58;6.30;;;5.72;;
18947;SDS011;9607;51.600;7.558;2022-08-19T02:30:31;9.98;;;9.07;;
18947;SDS011;9607;51.600;7.558;2022-08-19T02:33:02;12.25;;;11.05;;
18947;SDS011;9607;51.600;7.558;2022-08-19T02:35:31;11.00;;;10.00;;
18947;SDS011;9607;51.600;7.558;2022-08-19T02:40:55;10.43;;;9.43;;
18947;SDS011;9607;51.600;7.558;2022-08-19T02:43:24;9.80;;;8.90;;
18947;SDS011;9607;51.600;7.558;2022-08-19T02:45:52;9.23;;;8.43;;
18947;SDS011;9607;51.600;7.558;2022-08-19T02:48:24;8.18;;;7.38;;
18947;SDS011;9607;51.600;7.558;2022-08-19T02:51:03;7.35;;;6.75;;
18947;SDS011;9607;51.600;7.558;2022-08-19T02:53:31;6.75;;;6.25;;
18947;SDS011;9607;51.600;7.558;2022-08-19T02:56:00;6.22;;;5.70;;
18947;SDS011;9607;51.600;7.558;2022-08-19T02:58:34;5.88;;;5.38;;
18947;SDS011;9607;51.600;7.558;2022-08-19T03:03:47;6.15;;;5.65;;
18947;SDS011;9607;51.600;7.558;2022-08-19T03:06:18;5.15;;;4.75;;
18947;SDS011;9607;51.600;7.558;2022-08-19T03:08:48;5.05;;;4.65;;
18947;SDS011;9607;51.600;7.558;2022-08-19T03:11:18;6.20;;;5.70;;
18947;SDS011;9607;51.600;7.558;2022-08-19T03:13:48;5.88;;;5.38;;
18947;SDS011;9607;51.600;7.558;2022-08-19T03:16:16;6.22;;;5.72;;
18947;SDS011;9607;51.600;7.558;2022-08-19T03:18:43;6.95;;;6.35;;
18947;SDS011;9607;51.600;7.558;2022-08-19T03:21:16;6.50;;;6.00;;
18947;SDS011;9607;51.600;7.558;2022-08-19T03:23:54;5.40;;;4.97;;
18947;SDS011;9607;51.600;7.558;2022-08-19T03:26:25;5.50;;;5.10;;
18947;SDS011;9607;51.600;7.558;2022-08-19T03:28:54;5.20;;;4.80;;
18947;SDS011;9607;51.600;7.558;2022-08-19T03:31:22;5.55;;;5.15;;
18947;SDS011;9607;51.600;7.558;2022-08-19T03:34:00;5.43;;;5.03;;
18947;SDS011;9607;51.600;7.558;2022-08-19T03:36:27;6.50;;;5.90;;
18947;SDS011;9607;51.600;7.558;2022-08-19T03:38:54;6.55;;;5.97;;
18947;SDS011;9607;51.600;7.558;2022-08-19T03:41:32;8.93;;;8.13;;
18947;SDS011;9607;51.600;7.558;2022-08-19T03:44:03;8.55;;;7.75;;
18947;SDS011;9607;51.600;7.558;2022-08-19T03:46:31;7.80;;;7.10;;
18947;SDS011;9607;51.600;7.558;2022-08-19T03:49:02;6.43;;;5.93;;
18947;SDS011;9607;51.600;7.558;2022-08-19T03:51:34;6.68;;;6.18;;
18947;SDS011;9607;51.600;7.558;2022-08-19T03:54:13;6.20;;;5.70;;
18947;SDS011;9607;51.600;7.558;2022-08-19T03:56:49;5.80;;;5.40;;
18947;SDS011;9607;51.600;7.558;2022-08-19T03:59:21;5.40;;;5.00;;
18947;SDS011;9607;51.600;7.558;2022-08-19T04:01:52;5.32;;;4.93;;
18947;SDS011;9607;51.600;7.558;2022-08-19T04:04:20;5.50;;;5.10;;
18947;SDS011;9607;51.600;7.558;2022-08-19T04:06:47;7.93;;;7.22;;
18947;SDS011;9607;51.600;7.558;2022-08-19T04:09:15;7.85;;;7.13;;
18947;SDS011;9607;51.600;7.558;2022-08-19T04:11:43;7.03;;;6.43;;
18947;SDS011;9607;51.600;7.558;2022-08-19T04:14:28;9.15;;;8.25;;
18947;SDS011;9607;51.600;7.558;2022-08-19T04:16:57;9.25;;;8.45;;
18947;SDS011;9607;51.600;7.558;2022-08-19T04:19:25;8.65;;;7.75;;
18947;SDS011;9607;51.600;7.558;2022-08-19T04:21:55;7.55;;;6.90;;
18947;SDS011;9607;51.600;7.558;2022-08-19T04:24:22;7.60;;;6.93;;
18947;SDS011;9607;51.600;7.558;2022-08-19T04:26:50;6.90;;;6.30;;
18947;SDS011;9607;51.600;7.558;2022-08-19T04:29:18;6.63;;;6.03;;
18947;SDS011;9607;51.600;7.558;2022-08-19T04:31:51;5.75;;;5.32;;
18947;SDS011;9607;51.600;7.558;2022-08-19T04:34:20;6.35;;;5.85;;
18947;SDS011;9607;51.600;7.558;2022-08-19T04:36:49;5.65;;;5.15;;
18947;SDS011;9607;51.600;7.558;2022-08-19T04:39:18;5.95;;;5.45;;
18947;SDS011;9607;51.600;7.558;2022-08-19T04:41:47;8.20;;;7.40;;
18947;SDS011;9607;51.600;7.558;2022-08-19T04:44:32;7.40;;;6.80;;
18947;SDS011;9607;51.600;7.558;2022-08-19T04:47:02;6.85;;;6.25;;
18947;SDS011;9607;51.600;7.558;2022-08-19T04:49:32;6.72;;;6.18;;
18947;SDS011;9607;51.600;7.558;2022-08-19T04:51:59;6.30;;;5.80;;
18947;SDS011;9607;51.600;7.558;2022-08-19T04:54:26;6.10;;;5.60;;
18947;SDS011;9607;51.600;7.558;2022-08-19T04:56:52;5.30;;;4.88;;
18947;SDS011;9607;51.600;7.558;2022-08-19T04:59:19;6.13;;;5.63;;
18947;SDS011;9607;51.600;7.558;2022-08-19T05:01:46;6.40;;;5.80;;
18947;SDS011;9607;51.600;7.558;2022-08-19T05:04:17;6.40;;;5.90;;
18947;SDS011;9607;51.600;7.558;2022-08-19T05:06:45;9.60;;;8.70;;
18947;SDS011;9607;51.600;7.558;2022-08-19T05:09:13;8.73;;;7.82;;
18947;SDS011;9607;51.600;7.558;2022-08-19T05:11:40;10.63;;;8.65;;
18947;SDS011;9607;51.600;7.558;2022-08-19T05:14:07;9.50;;;8.65;;
18947;SDS011;9607;51.600;7.558;2022-08-19T05:16:37;9.82;;;9.02;;
18947;SDS011;9607;51.600;7.558;2022-08-19T05:19:04;9.25;;;8.38;;
18947;SDS011;9607;51.600;7.558;2022-08-19T05:21:51;10.73;;;9.68;;
18947;SDS011;9607;51.600;7.558;2022-08-19T05:24:36;9.52;;;8.63;;
18947;SDS011;9607;51.600;7.558;2022-08-19T05:27:03;9.93;;;9.02;;
18947;SDS011;9607;51.600;7.558;2022-08-19T05:29:30;8.77;;;7.97;;
18947;SDS011;9607;51.600;7.558;2022-08-19T05:31:59;7.13;;;6.53;;
18947;SDS011;9607;51.600;7.558;2022-08-19T05:34:27;9.52;;;8.43;;
18947;SDS011;9607;51.600;7.558;2022-08-19T05:36:56;7.75;;;7.05;;
18947;SDS011;9607;51.600;7.558;2022-08-19T05:39:24;7.63;;;6.88;;
18947;SDS011;9607;51.600;7.558;2022-08-19T05:41:53;7.13;;;6.53;;
18947;SDS011;9607;51.600;7.558;2022-08-19T05:44:22;8.10;;;7.40;;
18947;SDS011;9607;51.600;7.558;2022-08-19T05:46:50;8.18;;;7.38;;
18947;SDS011;9607;51.600;7.558;2022-08-19T05:49:19;7.80;;;7.20;;
18947;SDS011;9607;51.600;7.558;2022-08-19T05:51:47;7.97;;;7.28;;
18947;SDS011;9607;51.600;7.558;2022-08-19T05:54:16;7.40;;;6.80;;
18947;SDS011;9607;51.600;7.558;2022-08-19T05:56:44;6.63;;;6.13;;
18947;SDS011;9607;51.600;7.558;2022-08-19T05:59:13;6.68;;;6.07;;
18947;SDS011;9607;51.600;7.558;2022-08-19T06:01:43;7.45;;;6.80;;
18947;SDS011;9607;51.600;7.558;2022-08-19T06:04:11;7.03;;;6.43;;
18947;SDS011;9607;51.600;7.558;2022-08-19T06:06:40;8.20;;;7.50;;
18947;SDS011;9607;51.600;7.558;2022-08-19T06:09:07;8.32;;;7.63;;
18947;SDS011;9607;51.600;7.558;2022-08-19T06:11:37;7.75;;;7.05;;
18947;SDS011;9607;51.600;7.558;2022-08-19T06:14:06;9.35;;;8.48;;
18947;SDS011;9607;51.600;7.558;2022-08-19T06:16:35;8.48;;;7.68;;
18947;SDS011;9607;51.600;7.558;2022-08-19T06:19:04;7.75;;;7.07;;
18947;SDS011;9607;51.600;7.558;2022-08-19T06:21:32;7.68;;;7.03;;
18947;SDS011;9607;51.600;7.558;2022-08-19T06:24:02;7.60;;;7.00;;
18947;SDS011;9607;51.600;7.558;2022-08-19T06:26:30;8.98;;;8.10;;
18947;SDS011;9607;51.600;7.558;2022-08-19T06:28:58;9.93;;;8.73;;
18947;SDS011;9607;51.600;7.558;2022-08-19T06:31:26;8.35;;;7.65;;
18947;SDS011;9607;51.600;7.558;2022-08-19T06:33:54;8.60;;;7.80;;
18947;SDS011;9607;51.600;7.558;2022-08-19T06:36:22;8.13;;;7.43;;
18947;SDS011;9607;51.600;7.558;2022-08-19T06:38:52;8.68;;;7.90;;
18947;SDS011;9607;51.600;7.558;2022-08-19T06:41:19;9.18;;;8.38;;
18947;SDS011;9607;51.600;7.558;2022-08-19T06:43:46;8.55;;;7.85;;
18947;SDS011;9607;51.600;7.558;2022-08-19T06:46:15;10.35;;;9.25;;
18947;SDS011;9607;51.600;7.558;2022-08-19T06:48:43;8.30;;;7.60;;
18947;SDS011;9607;51.600;7.558;2022-08-19T06:51:11;10.23;;;9.23;;
18947;SDS011;9607;51.600;7.558;2022-08-19T06:53:40;8.48;;;7.78;;
18947;SDS011;9607;51.600;7.558;2022-08-19T06:56:14;8.25;;;7.45;;
18947;SDS011;9607;51.600;7.558;2022-08-19T06:58:42;8.20;;;7.50;;
18947;SDS011;9607;51.600;7.558;2022-08-19T07:01:09;8.77;;;7.97;;
18947;SDS011;9607;51.600;7.558;2022-08-19T07:03:37;7.10;;;6.50;;
18947;SDS011;9607;51.600;7.558;2022-08-19T07:06:05;8.98;;;8.18;;
18947;SDS011;9607;51.600;7.558;2022-08-19T07:08:35;11.30;;;10.30;;
18947;SDS011;9607;51.600;7.558;2022-08-19T07:11:06;13.05;;;11.15;;
18947;SDS011;9607;51.600;7.558;2022-08-19T07:13:34;14.25;;;12.27;;
18947;SDS011;9607;51.600;7.558;2022-08-19T07:16:03;14.98;;;13.45;;
18947;SDS011;9607;51.600;7.558;2022-08-19T07:18:31;21.67;;;19.33;;
18947;SDS011;9607;51.600;7.558;2022-08-19T07:21:03;17.38;;;15.57;;
18947;SDS011;9607;51.600;7.558;2022-08-19T07:23:31;17.88;;;15.85;;
18947;SDS011;9607;51.600;7.558;2022-08-19T07:26:03;14.77;;;13.23;;
18947;SDS011;9607;51.600;7.558;2022-08-19T07:28:31;16.40;;;13.57;;
18947;SDS011;9607;51.600;7.558;2022-08-19T07:30:58;18.25;;;15.65;;
18947;SDS011;9607;51.600;7.558;2022-08-19T07:33:26;11.75;;;10.55;;
18947;SDS011;9607;51.600;7.558;2022-08-19T07:35:57;14.80;;;13.13;;
18947;SDS011;9607;51.600;7.558;2022-08-19T07:38:25;12.95;;;11.65;;
18947;SDS011;9607;51.600;7.558;2022-08-19T07:40:52;15.32;;;13.73;;
18947;SDS011;9607;51.600;7.558;2022-08-19T07:43:18;25.88;;;18.98;;
18947;SDS011;9607;51.600;7.558;2022-08-19T07:45:47;20.50;;;18.00;;
18947;SDS011;9607;51.600;7.558;2022-08-19T07:48:14;13.90;;;12.50;;
18947;SDS011;9607;51.600;7.558;2022-08-19T07:50:41;13.80;;;12.50;;
18947;SDS011;9607;51.600;7.558;2022-08-19T07:53:08;16.08;;;14.32;;
18947;SDS011;9607;51.600;7.558;2022-08-19T07:55:38;17.90;;;15.38;;
18947;SDS011;9607;51.600;7.558;2022-08-19T07:58:05;16.17;;;14.50;;
18947;SDS011;9607;51.600;7.558;2022-08-19T08:00:32;27.25;;;22.83;;
18947;SDS011;9607;51.600;7.558;2022-08-19T08:03:00;16.60;;;14.90;;
18947;SDS011;9607;51.600;7.558;2022-08-19T08:05:27;14.40;;;12.90;;
18947;SDS011;9607;51.600;7.558;2022-08-19T08:08:11;12.57;;;11.27;;
18947;SDS011;9607;51.600;7.558;2022-08-19T08:11:02;12.35;;;11.15;;
18947;SDS011;9607;51.600;7.558;2022-08-19T08:13:30;17.38;;;15.65;;
18947;SDS011;9607;51.600;7.558;2022-08-19T08:15:58;18.02;;;16.23;;
18947;SDS011;9607;51.600;7.558;2022-08-19T08:18:25;14.70;;;13.00;;
18947;SDS011;9607;51.600;7.558;2022-08-19T08:20:51;15.90;;;14.18;;
18947;SDS011;9607;51.600;7.558;2022-08-19T08:23:18;21.65;;;16.02;;
18947;SDS011;9607;51.600;7.558;2022-08-19T08:25:47;16.52;;;14.77;;
18947;SDS011;9607;51.600;7.558;2022-08-19T08:28:16;17.23;;;15.23;;
18947;SDS011;9607;51.600;7.558;2022-08-19T08:30:43;14.95;;;13.00;;
18947;SDS011;9607;51.600;7.558;2022-08-19T08:33:12;15.45;;;13.80;;
18947;SDS011;9607;51.600;7.558;2022-08-19T08:35:40;17.73;;;14.65;;
18947;SDS011;9607;51.600;7.558;2022-08-19T08:38:10;15.85;;;13.98;;
18947;SDS011;9607;51.600;7.558;2022-08-19T08:40:39;17.88;;;15.15;;
18947;SDS011;9607;51.600;7.558;2022-08-19T08:43:20;16.60;;;13.60;;
18947;SDS011;9607;51.600;7.558;2022-08-19T08:45:56;14.15;;;12.05;;
18947;SDS011;9607;51.600;7.558;2022-08-19T08:48:30;18.70;;;13.52;;
18947;SDS011;9607;51.600;7.558;2022-08-19T08:51:04;14.13;;;12.40;;
18947;SDS011;9607;51.600;7.558;2022-08-19T08:53:35;15.32;;;12.85;;
18947;SDS011;9607;51.600;7.558;2022-08-19T08:56:04;10.02;;;8.98;;
18947;SDS011;9607;51.600;7.558;2022-08-19T08:58:41;13.80;;;12.18;;
18947;SDS011;9607;51.600;7.558;2022-08-19T09:01:14;14.70;;;13.07;;
18947;SDS011;9607;51.600;7.558;2022-08-19T09:03:41;16.45;;;14.07;;
18947;SDS011;9607;51.600;7.558;2022-08-19T09:06:12;12.75;;;9.20;;
18947;SDS011;9607;51.600;7.558;2022-08-19T09:08:45;9.05;;;7.65;;
18947;SDS011;9607;51.600;7.558;2022-08-19T09:11:19;11.38;;;10.35;;
18947;SDS011;9607;51.600;7.558;2022-08-19T09:14:08;10.25;;;9.20;;
18947;SDS011;9607;51.600;7.558;2022-08-19T09:16:45;9.13;;;8.18;;
18947;SDS011;9607;51.600;7.558;2022-08-19T09:19:13;12.60;;;10.40;;
18947;SDS011;9607;51.600;7.558;2022-08-19T09:21:40;13.00;;;11.70;;
18947;SDS011;9607;51.600;7.558;2022-08-19T09:24:07;8.70;;;7.68;;
18947;SDS011;9607;51.600;7.558;2022-08-19T09:26:34;8.20;;;7.40;;
18947;SDS011;9607;51.600;7.558;2022-08-19T09:29:01;9.82;;;8.82;;
18947;SDS011;9607;51.600;7.558;2022-08-19T09:31:31;11.43;;;10.32;;
18947;SDS011;9607;51.600;7.558;2022-08-19T09:33:59;10.05;;;9.15;;
18947;SDS011;9607;51.600;7.558;2022-08-19T09:36:29;8.55;;;7.63;;
18947;SDS011;9607;51.600;7.558;2022-08-19T09:39:01;8.30;;;7.47;;
18947;SDS011;9607;51.600;7.558;2022-08-19T09:41:29;8.38;;;6.90;;
18947;SDS011;9607;51.600;7.558;2022-08-19T09:43:58;10.68;;;9.68;;
18947;SDS011;9607;51.600;7.558;2022-08-19T09:46:26;8.93;;;8.13;;
18947;SDS011;9607;51.600;7.558;2022-08-19T09:48:56;10.27;;;9.30;;
18947;SDS011;9607;51.600;7.558;2022-08-19T09:51:25;9.50;;;6.95;;
18947;SDS011;9607;51.600;7.558;2022-08-19T09:53:54;7.85;;;7.13;;
18947;SDS011;9607;51.600;7.558;2022-08-19T09:56:27;9.70;;;7.40;;
18947;SDS011;9607;51.600;7.558;2022-08-19T09:58:56;14.10;;;12.07;;
18947;SDS011;9607;51.600;7.558;2022-08-19T10:01:25;11.10;;;9.73;;
18947;SDS011;9607;51.600;7.558;2022-08-19T10:03:55;9.50;;;8.68;;
18947;SDS011;9607;51.600;7.558;2022-08-19T10:06:25;7.63;;;6.93;;
18947;SDS011;9607;51.600;7.558;2022-08-19T10:08:54;8.90;;;7.00;;
18947;SDS011;9607;51.600;7.558;2022-08-19T10:11:21;6.82;;;5.75;;
18947;SDS011;9607;51.600;7.558;2022-08-19T10:13:48;4.95;;;4.13;;
18947;SDS011;9607;51.600;7.558;2022-08-19T10:16:16;5.03;;;4.53;;
18947;SDS011;9607;51.600;7.558;2022-08-19T10:18:47;6.10;;;4.78;;
18947;SDS011;9607;51.600;7.558;2022-08-19T10:21:16;5.70;;;5.20;;
18947;SDS011;9607;51.600;7.558;2022-08-19T10:23:46;5.70;;;5.18;;
18947;SDS011;9607;51.600;7.558;2022-08-19T10:26:15;4.45;;;4.07;;
18947;SDS011;9607;51.600;7.558;2022-08-19T10:28:44;7.50;;;6.70;;
18947;SDS011;9607;51.600;7.558;2022-08-19T10:31:12;8.85;;;7.78;;
18947;SDS011;9607;51.600;7.558;2022-08-19T10:33:40;6.30;;;5.32;;
18947;SDS011;9607;51.600;7.558;2022-08-19T10:36:09;12.18;;;6.53;;
18947;SDS011;9607;51.600;7.558;2022-08-19T10:38:42;14.32;;;8.75;;
18947;SDS011;9607;51.600;7.558;2022-08-19T10:41:11;14.10;;;9.57;;
18947;SDS011;9607;51.600;7.558;2022-08-19T10:43:41;12.30;;;8.73;;
18947;SDS011;9607;51.600;7.558;2022-08-19T10:46:11;10.80;;;9.73;;
18947;SDS011;9607;51.600;7.558;2022-08-19T10:48:40;9.88;;;8.70;;
18947;SDS011;9607;51.600;7.558;2022-08-19T10:51:08;12.70;;;11.43;;
18947;SDS011;9607;51.600;7.558;2022-08-19T10:53:54;9.98;;;9.02;;
18947;SDS011;9607;51.600;7.558;2022-08-19T10:56:21;9.50;;;8.38;;
18947;SDS011;9607;51.600;7.558;2022-08-19T10:59:06;8.25;;;7.43;;
18947;SDS011;9607;51.600;7.558;2022-08-19T11:01:33;8.57;;;7.78;;
18947;SDS011;9607;51.600;7.558;2022-08-19T11:04:01;8.25;;;7.45;;
18947;SDS011;9607;51.600;7.558;2022-08-19T11:06:31;7.90;;;7.20;;
18947;SDS011;9607;51.600;7.558;2022-08-19T11:08:59;7.15;;;6.43;;
18947;SDS011;9607;51.600;7.558;2022-08-19T11:11:26;7.28;;;6.60;;
18947;SDS011;9607;51.600;7.558;2022-08-19T11:13:54;8.57;;;6.25;;
18947;SDS011;9607;51.600;7.558;2022-08-19T11:16:22;7.53;;;6.70;;
18947;SDS011;9607;51.600;7.558;2022-08-19T11:18:52;12.55;;;7.22;;
18947;SDS011;9607;51.600;7.558;2022-08-19T11:21:24;9.68;;;8.55;;
18947;SDS011;9607;51.600;7.558;2022-08-19T11:23:53;11.88;;;9.27;;
18947;SDS011;9607;51.600;7.558;2022-08-19T11:26:23;8.93;;;8.02;;
18947;SDS011;9607;51.600;7.558;2022-08-19T11:28:51;10.25;;;8.82;;
18947;SDS011;9607;51.600;7.558;2022-08-19T11:31:20;6.82;;;6.20;;
18947;SDS011;9607;51.600;7.558;2022-08-19T11:33:48;7.97;;;7.28;;
18947;SDS011;9607;51.600;7.558;2022-08-19T11:36:15;6.43;;;5.75;;
18947;SDS011;9607;51.600;7.558;2022-08-19T11:38:44;7.32;;;4.97;;
18947;SDS011;9607;51.600;7.558;2022-08-19T11:41:13;8.75;;;7.85;;
18947;SDS011;9607;51.600;7.558;2022-08-19T11:43:44;8.75;;;5.90;;
18947;SDS011;9607;51.600;7.558;2022-08-19T11:46:12;6.97;;;5.95;;
18947;SDS011;9607;51.600;7.558;2022-08-19T11:48:40;8.80;;;6.32;;
18947;SDS011;9607;51.600;7.558;2022-08-19T11:51:12;8.43;;;6.60;;
18947;SDS011;9607;51.600;7.558;2022-08-19T11:53:40;8.18;;;5.50;;
18947;SDS011;9607;51.600;7.558;2022-08-19T11:56:07;5.93;;;5.28;;
18947;SDS011;9607;51.600;7.558;2022-08-19T11:58:35;5.65;;;5.05;;
18947;SDS011;9607;51.600;7.558;2022-08-19T12:01:06;7.85;;;6.25;;
18947;SDS011;9607;51.600;7.558;2022-08-19T12:03:34;6.60;;;5.90;;
18947;SDS011;9607;51.600;7.558;2022-08-19T12:06:03;6.13;;;4.43;;
18947;SDS011;9607;51.600;7.558;2022-08-19T12:08:31;6.75;;;5.78;;
18947;SDS011;9607;51.600;7.558;2022-08-19T12:10:58;5.22;;;4.80;;
18947;SDS011;9607;51.600;7.558;2022-08-19T12:13:26;5.90;;;4.88;;
18947;SDS011;9607;51.600;7.558;2022-08-19T12:15:53;5.30;;;4.80;;
18947;SDS011;9607;51.600;7.558;2022-08-19T12:18:21;4.18;;;3.88;;
18947;SDS011;9607;51.600;7.558;2022-08-19T12:20:50;4.80;;;4.07;;
18947;SDS011;9607;51.600;7.558;2022-08-19T12:23:17;4.95;;;3.80;;
18947;SDS011;9607;51.600;7.558;2022-08-19T12:25:45;5.25;;;4.35;;
18947;SDS011;9607;51.600;7.558;2022-08-19T12:28:15;5.13;;;4.00;;
18947;SDS011;9607;51.600;7.558;2022-08-19T12:30:41;4.20;;;3.80;;
18947;SDS011;9607;51.600;7.558;2022-08-19T12:33:08;4.32;;;3.92;;
18947;SDS011;9607;51.600;7.558;2022-08-19T12:35:38;5.10;;;4.60;;
18947;SDS011;9607;51.600;7.558;2022-08-19T12:38:05;7.25;;;6.55;;
18947;SDS011;9607;51.600;7.558;2022-08-19T12:40:32;7.32;;;5.75;;
18947;SDS011;9607;51.600;7.558;2022-08-19T12:42:59;6.20;;;5.35;;
18947;SDS011;9607;51.600;7.558;2022-08-19T12:45:26;5.70;;;5.20;;
18947;SDS011;9607;51.600;7.558;2022-08-19T12:47:53;5.40;;;4.90;;
18947;SDS011;9607;51.600;7.558;2022-08-19T12:50:20;5.93;;;5.43;;
18947;SDS011;9607;51.600;7.558;2022-08-19T12:52:49;5.30;;;4.88;;
18947;SDS011;9607;51.600;7.558;2022-08-19T12:55:15;5.90;;;5.35;;
18947;SDS011;9607;51.600;7.558;2022-08-19T12:57:43;6.18;;;4.68;;
18947;SDS011;9607;51.600;7.558;2022-08-19T13:00:11;7.25;;;5.13;;
18947;SDS011;9607;51.600;7.558;2022-08-19T13:02:41;5.97;;;5.47;;
18947;SDS011;9607;51.600;7.558;2022-08-19T13:05:12;5.80;;;5.10;;
18947;SDS011;9607;51.600;7.558;2022-08-19T13:07:41;6.40;;;5.75;;
18947;SDS011;9607;51.600;7.558;2022-08-19T13:10:10;8.10;;;7.38;;
18947;SDS011;9607;51.600;7.558;2022-08-19T13:12:40;8.10;;;7.35;;
18947;SDS011;9607;51.600;7.558;2022-08-19T13:15:08;8.30;;;7.45;;
18947;SDS011;9607;51.600;7.558;2022-08-19T13:17:36;8.10;;;6.75;;
18947;SDS011;9607;51.600;7.558;2022-08-19T13:20:04;8.25;;;7.45;;
18947;SDS011;9607;51.600;7.558;2022-08-19T13:22:32;8.48;;;6.72;;
18947;SDS011;9607;51.600;7.558;2022-08-19T13:25:00;7.03;;;6.47;;
18947;SDS011;9607;51.600;7.558;2022-08-19T13:27:28;6.80;;;6.03;;
18947;SDS011;9607;51.600;7.558;2022-08-19T13:29:55;7.38;;;6.72;;
18947;SDS011;9607;51.600;7.558;2022-08-19T13:32:40;8.38;;;7.53;;
18947;SDS011;9607;51.600;7.558;2022-08-19T13:35:24;6.95;;;6.25;;
18947;SDS011;9607;51.600;7.558;2022-08-19T13:37:51;6.00;;;5.45;;
18947;SDS011;9607;51.600;7.558;2022-08-19T13:40:19;5.68;;;5.18;;
18947;SDS011;9607;51.600;7.558;2022-08-19T13:42:51;6.70;;;6.10;;
18947;SDS011;9607;51.600;7.558;2022-08-19T13:45:21;9.55;;;6.40;;
18947;SDS011;9607;51.600;7.558;2022-08-19T13:47:50;5.80;;;5.30;;
18947;SDS011;9607;51.600;7.558;2022-08-19T13:50:20;7.72;;;5.25;;
18947;SDS011;9607;51.600;7.558;2022-08-19T13:52:49;5.50;;;5.07;;
18947;SDS011;9607;51.600;7.558;2022-08-19T13:55:17;6.40;;;5.63;;
18947;SDS011;9607;51.600;7.558;2022-08-19T13:57:44;5.80;;;5.30;;
18947;SDS011;9607;51.600;7.558;2022-08-19T14:00:14;6.28;;;5.78;;
18947;SDS011;9607;51.600;7.558;2022-08-19T14:02:43;6.22;;;5.63;;
18947;SDS011;9607;51.600;7.558;2022-08-19T14:05:11;7.55;;;5.57;;
18947;SDS011;9607;51.600;7.558;2022-08-19T14:07:40;5.60;;;5.20;;
18947;SDS011;9607;51.600;7.558;2022-08-19T14:10:09;5.82;;;5.22;;
18947;SDS011;9607;51.600;7.558;2022-08-19T14:12:37;6.25;;;5.35;;
18947;SDS011;9607;51.600;7.558;2022-08-19T14:15:05;6.80;;;5.80;;
18947;SDS011;9607;51.600;7.558;2022-08-19T14:17:34;6.05;;;5.55;;
18947;SDS011;9607;51.600;7.558;2022-08-19T14:20:04;6.30;;;5.78;;
18947;SDS011;9607;51.600;7.558;2022-08-19T14:22:34;6.45;;;5.60;;
18947;SDS011;9607;51.600;7.558;2022-08-19T14:25:03;7.03;;;6.30;;
18947;SDS011;9607;51.600;7.558;2022-08-19T14:27:32;6.32;;;5.72;;
18947;SDS011;9607;51.600;7.558;2022-08-19T14:29:59;7.07;;;5.80;;
18947;SDS011;9607;51.600;7.558;2022-08-19T14:32:26;6.68;;;5.97;;
18947;SDS011;9607;51.600;7.558;2022-08-19T14:34:54;6.70;;;6.07;;
18947;SDS011;9607;51.600;7.558;2022-08-19T14:37:22;7.38;;;6.40;;
18947;SDS011;9607;51.600;7.558;2022-08-19T14:39:48;6.47;;;5.88;;
18947;SDS011;9607;51.600;7.558;2022-08-19T14:42:15;6.43;;;5.82;;
18947;SDS011;9607;51.600;7.558;2022-08-19T14:44:42;5.50;;;4.88;;
18947;SDS011;9607;51.600;7.558;2022-08-19T14:47:09;6.03;;;5.30;;
18947;SDS011;9607;51.600;7.558;2022-08-19T14:49:36;5.75;;;4.35;;
18947;SDS011;9607;51.600;7.558;2022-08-19T14:52:05;7.40;;;5.40;;
18947;SDS011;9607;51.600;7.558;2022-08-19T14:54:34;5.15;;;4.55;;
18947;SDS011;9607;51.600;7.558;2022-08-19T14:57:01;5.05;;;4.57;;
18947;SDS011;9607;51.600;7.558;2022-08-19T14:59:28;9.35;;;6.13;;
18947;SDS011;9607;51.600;7.558;2022-08-19T15:01:55;4.32;;;3.80;;
18947;SDS011;9607;51.600;7.558;2022-08-19T15:04:22;4.93;;;4.47;;
18947;SDS011;9607;51.600;7.558;2022-08-19T15:06:48;9.13;;;5.13;;
18947;SDS011;9607;51.600;7.558;2022-08-19T15:09:17;5.00;;;4.35;;
18947;SDS011;9607;51.600;7.558;2022-08-19T15:11:43;4.05;;;3.75;;
18947;SDS011;9607;51.600;7.558;2022-08-19T15:14:11;3.97;;;3.67;;
18947;SDS011;9607;51.600;7.558;2022-08-19T15:16:40;4.30;;;3.60;;
18947;SDS011;9607;51.600;7.558;2022-08-19T15:19:07;3.60;;;3.30;;
18947;SDS011;9607;51.600;7.558;2022-08-19T15:21:34;6.03;;;3.97;;
18947;SDS011;9607;51.600;7.558;2022-08-19T15:24:02;6.50;;;3.67;;
18947;SDS011;9607;51.600;7.558;2022-08-19T15:26:31;3.80;;;3.35;;
18947;SDS011;9607;51.600;7.558;2022-08-19T15:28:58;3.63;;;3.33;;
18947;SDS011;9607;51.600;7.558;2022-08-19T15:31:25;3.90;;;3.55;;